sensor_id;sensor_type;location;lat;lon;timestamp;P1;P2;P0
76049;PMS7003;64967;50.234;19.224;2023-05-03T00:01:42;6.75;6.00;5.00
76049;PMS7003;64967;50.234;19.224;2023-05-03T00:04:09;15.75;13.50;11.00
76049;PMS7003;64967;50.234;19.224;2023-05-03T00:06:37;12.50;11.75;10.25
76049;PMS7003;64967;50.234;19.224;2023-05-03T00:09:26;10.00;9.25;6.50
76049;PMS7003;64967;50.234;19.224;2023-05-03T00:12:13;11.00;9.00;4.75
76049;PMS7003;64967;50.234;19.224;2023-05-03T00:14:59;26.00;20.75;13.75
76049;PMS7003;64967;50.234;19.224;2023-05-03T00:17:43;24.75;22.25;17.25
76049;PMS7003;64967;50.234;19.224;2023-05-03T00:20:11;2.00;2.00;0.00
76049;PMS7003;64967;50.234;19.224;2023-05-03T00:22:38;13.25;12.50;11.25
76049;PMS7003;64967;50.234;19.224;2023-05-03T00:25:07;19.25;19.25;14.75
76049;PMS7003;64967;50.234;19.224;2023-05-03T00:27:35;15.25;13.75;10.25
76049;PMS7003;64967;50.234;19.224;2023-05-03T00:30:02;18.75;16.75;12.25
76049;PMS7003;64967;50.234;19.224;2023-05-03T00:32:30;11.75;10.50;8.75
76049;PMS7003;64967;50.234;19.224;2023-05-03T00:34:57;16.75;13.50;11.75
76049;PMS7003;64967;50.234;19.224;2023-05-03T00:37:24;16.25;13.50;11.00
76049;PMS7003;64967;50.234;19.224;2023-05-03T00:39:52;19.25;15.00;12.00
76049;PMS7003;64967;50.234;19.224;2023-05-03T00:42:19;13.25;12.00;9.50
76049;PMS7003;64967;50.234;19.224;2023-05-03T00:44:46;15.25;13.50;11.00
76049;PMS7003;64967;50.234;19.224;2023-05-03T00:47:13;11.75;11.25;9.00
76049;PMS7003;64967;50.234;19.224;2023-05-03T00:49:41;14.00;13.50;10.50
76049;PMS7003;64967;50.234;19.224;2023-05-03T00:52:10;13.75;12.75;10.00
76049;PMS7003;64967;50.234;19.224;2023-05-03T00:54:37;6.00;5.75;5.00
76049;PMS7003;64967;50.234;19.224;2023-05-03T00:57:05;8.50;8.50;7.25
76049;PMS7003;64967;50.234;19.224;2023-05-03T00:59:32;11.50;10.00;9.00
76049;PMS7003;64967;50.234;19.224;2023-05-03T01:01:59;13.00;12.75;10.75
76049;PMS7003;64967;50.234;19.224;2023-05-03T01:04:27;8.25;7.25;5.25
76049;PMS7003;64967;50.234;19.224;2023-05-03T01:09:56;18.75;16.25;14.50
76049;PMS7003;64967;50.234;19.224;2023-05-03T01:12:54;21.25;17.25;12.50
76049;PMS7003;64967;50.234;19.224;2023-05-03T01:16:05;14.50;11.75;9.25
76049;PMS7003;64967;50.234;19.224;2023-05-03T01:25:07;6.00;6.00;4.50
76049;PMS7003;64967;50.234;19.224;2023-05-03T01:27:36;4.50;4.50;4.00
76049;PMS7003;64967;50.234;19.224;2023-05-03T01:30:04;13.00;10.25;7.00
76049;PMS7003;64967;50.234;19.224;2023-05-03T01:35:53;23.00;22.00;16.25
76049;PMS7003;64967;50.234;19.224;2023-05-03T01:38:35;24.00;22.25;16.50
76049;PMS7003;64967;50.234;19.224;2023-05-03T01:41:05;16.00;15.00;12.00
76049;PMS7003;64967;50.234;19.224;2023-05-03T01:43:35;14.00;13.25;10.50
76049;PMS7003;64967;50.234;19.224;2023-05-03T01:46:04;16.25;13.00;9.00
76049;PMS7003;64967;50.234;19.224;2023-05-03T01:48:31;11.25;11.25;10.50
76049;PMS7003;64967;50.234;19.224;2023-05-03T01:50:58;14.00;13.00;9.75
76049;PMS7003;64967;50.234;19.224;2023-05-03T01:53:25;12.50;11.75;10.00
76049;PMS7003;64967;50.234;19.224;2023-05-03T01:55:52;12.00;11.75;10.00
76049;PMS7003;64967;50.234;19.224;2023-05-03T01:58:19;14.00;10.00;7.25
76049;PMS7003;64967;50.234;19.224;2023-05-03T02:00:46;11.75;10.50;9.00
76049;PMS7003;64967;50.234;19.224;2023-05-03T02:03:14;22.00;18.00;14.25
76049;PMS7003;64967;50.234;19.224;2023-05-03T02:05:41;23.25;21.00;16.25
76049;PMS7003;64967;50.234;19.224;2023-05-03T02:08:08;21.25;18.00;14.50
76049;PMS7003;64967;50.234;19.224;2023-05-03T02:10:35;22.25;19.00;15.25
76049;PMS7003;64967;50.234;19.224;2023-05-03T02:13:02;29.25;25.75;19.00
76049;PMS7003;64967;50.234;19.224;2023-05-03T02:15:29;18.00;17.50;12.25
76049;PMS7003;64967;50.234;19.224;2023-05-03T02:17:57;16.00;15.00;11.00
76049;PMS7003;64967;50.234;19.224;2023-05-03T02:20:28;23.75;18.25;12.75
76049;PMS7003;64967;50.234;19.224;2023-05-03T02:22:57;16.75;15.25;13.00
76049;PMS7003;64967;50.234;19.224;2023-05-03T02:25:25;14.50;12.75;10.50
76049;PMS7003;64967;50.234;19.224;2023-05-03T02:27:53;13.25;11.75;9.25
76049;PMS7003;64967;50.234;19.224;2023-05-03T02:30:20;9.75;9.75;8.50
76049;PMS7003;64967;50.234;19.224;2023-05-03T02:32:47;6.00;6.00;5.50
76049;PMS7003;64967;50.234;19.224;2023-05-03T02:35:14;12.75;11.25;9.50
76049;PMS7003;64967;50.234;19.224;2023-05-03T02:37:41;7.25;7.25;5.50
76049;PMS7003;64967;50.234;19.224;2023-05-03T02:40:08;7.00;7.00;6.25
76049;PMS7003;64967;50.234;19.224;2023-05-03T02:42:35;5.00;4.25;3.00
76049;PMS7003;64967;50.234;19.224;2023-05-03T02:45:02;6.75;6.25;5.50
76049;PMS7003;64967;50.234;19.224;2023-05-03T02:47:29;5.25;5.25;4.25
76049;PMS7003;64967;50.234;19.224;2023-05-03T02:49:57;5.00;5.00;4.00
76049;PMS7003;64967;50.234;19.224;2023-05-03T02:52:23;12.00;10.00;8.00
76049;PMS7003;64967;50.234;19.224;2023-05-03T02:54:50;13.75;12.75;9.75
76049;PMS7003;64967;50.234;19.224;2023-05-03T02:57:17;9.50;9.50;7.25
76049;PMS7003;64967;50.234;19.224;2023-05-03T02:59:44;21.25;19.50;15.25
76049;PMS7003;64967;50.234;19.224;2023-05-03T03:02:11;18.00;17.25;12.25
76049;PMS7003;64967;50.234;19.224;2023-05-03T03:04:38;18.00;15.00;12.50
76049;PMS7003;64967;50.234;19.224;2023-05-03T03:07:05;16.00;14.25;11.00
76049;PMS7003;64967;50.234;19.224;2023-05-03T03:09:32;14.50;13.00;11.00
76049;PMS7003;64967;50.234;19.224;2023-05-03T03:11:59;12.25;11.00;8.00
76049;PMS7003;64967;50.234;19.224;2023-05-03T03:14:28;15.50;14.50;11.00
76049;PMS7003;64967;50.234;19.224;2023-05-03T03:16:56;11.75;11.00;9.75
76049;PMS7003;64967;50.234;19.224;2023-05-03T03:19:23;11.75;11.50;9.00
76049;PMS7003;64967;50.234;19.224;2023-05-03T03:21:50;9.25;9.25;8.00
76049;PMS7003;64967;50.234;19.224;2023-05-03T03:24:17;11.25;10.50;7.50
76049;PMS7003;64967;50.234;19.224;2023-05-03T03:26:44;13.25;12.50;8.75
76049;PMS7003;64967;50.234;19.224;2023-05-03T03:29:11;13.00;12.00;10.50
76049;PMS7003;64967;50.234;19.224;2023-05-03T03:31:38;14.00;12.50;10.00
76049;PMS7003;64967;50.234;19.224;2023-05-03T03:34:05;4.75;4.75;3.25
76049;PMS7003;64967;50.234;19.224;2023-05-03T03:36:32;12.25;11.00;8.00
76049;PMS7003;64967;50.234;19.224;2023-05-03T03:38:59;31.25;27.50;20.50
76049;PMS7003;64967;50.234;19.224;2023-05-03T03:41:26;24.75;23.00;17.00
76049;PMS7003;64967;50.234;19.224;2023-05-03T03:43:53;20.75;18.00;12.75
76049;PMS7003;64967;50.234;19.224;2023-05-03T03:46:20;19.25;17.50;13.00
76049;PMS7003;64967;50.234;19.224;2023-05-03T03:48:47;22.75;19.00;13.25
76049;PMS7003;64967;50.234;19.224;2023-05-03T03:51:14;29.50;22.50;17.75
76049;PMS7003;64967;50.234;19.224;2023-05-03T03:53:41;27.25;26.00;18.00
76049;PMS7003;64967;50.234;19.224;2023-05-03T03:56:08;39.50;34.50;25.00
76049;PMS7003;64967;50.234;19.224;2023-05-03T03:58:35;45.50;37.00;25.50
76049;PMS7003;64967;50.234;19.224;2023-05-03T04:01:02;28.75;27.75;21.25
76049;PMS7003;64967;50.234;19.224;2023-05-03T04:03:29;40.00;35.00;23.75
76049;PMS7003;64967;50.234;19.224;2023-05-03T04:05:56;32.25;28.00;19.50
76049;PMS7003;64967;50.234;19.224;2023-05-03T04:08:23;25.25;22.00;14.50
76049;PMS7003;64967;50.234;19.224;2023-05-03T04:10:50;31.00;28.00;20.00
76049;PMS7003;64967;50.234;19.224;2023-05-03T04:13:17;42.00;37.00;24.50
76049;PMS7003;64967;50.234;19.224;2023-05-03T04:15:44;39.00;35.00;23.00
76049;PMS7003;64967;50.234;19.224;2023-05-03T04:18:11;44.75;36.00;24.00
76049;PMS7003;64967;50.234;19.224;2023-05-03T04:20:38;36.25;31.75;20.50
76049;PMS7003;64967;50.234;19.224;2023-05-03T04:23:05;53.25;40.00;26.00
76049;PMS7003;64967;50.234;19.224;2023-05-03T04:25:32;48.00;41.00;27.00
76049;PMS7003;64967;50.234;19.224;2023-05-03T04:28:02;36.25;34.25;22.25
76049;PMS7003;64967;50.234;19.224;2023-05-03T04:30:29;37.00;34.00;24.00
76049;PMS7003;64967;50.234;19.224;2023-05-03T04:32:57;40.25;34.00;23.00
76049;PMS7003;64967;50.234;19.224;2023-05-03T04:35:25;31.50;28.00;19.25
76049;PMS7003;64967;50.234;19.224;2023-05-03T04:37:52;25.50;22.75;15.50
76049;PMS7003;64967;50.234;19.224;2023-05-03T04:40:19;41.25;34.25;23.50
76049;PMS7003;64967;50.234;19.224;2023-05-03T04:42:46;41.75;36.00;23.00
76049;PMS7003;64967;50.234;19.224;2023-05-03T04:45:13;32.25;28.25;21.25
76049;PMS7003;64967;50.234;19.224;2023-05-03T04:47:40;33.75;26.75;19.25
76049;PMS7003;64967;50.234;19.224;2023-05-03T04:50:07;24.25;22.00;17.25
76049;PMS7003;64967;50.234;19.224;2023-05-03T04:52:36;38.75;31.50;20.75
76049;PMS7003;64967;50.234;19.224;2023-05-03T04:55:03;25.00;24.00;18.50
76049;PMS7003;64967;50.234;19.224;2023-05-03T04:57:32;22.75;20.25;15.75
76049;PMS7003;64967;50.234;19.224;2023-05-03T04:59:59;23.50;18.75;13.00
76049;PMS7003;64967;50.234;19.224;2023-05-03T05:02:27;37.25;26.25;18.50
76049;PMS7003;64967;50.234;19.224;2023-05-03T05:04:54;24.25;23.00;17.25
76049;PMS7003;64967;50.234;19.224;2023-05-03T05:07:21;31.50;27.50;20.00
76049;PMS7003;64967;50.234;19.224;2023-05-03T05:09:48;34.75;25.50;17.50
76049;PMS7003;64967;50.234;19.224;2023-05-03T05:12:15;39.25;31.75;20.50
76049;PMS7003;64967;50.234;19.224;2023-05-03T05:14:42;26.75;20.25;8.25
76049;PMS7003;64967;50.234;19.224;2023-05-03T05:17:09;31.75;27.00;19.00
76049;PMS7003;64967;50.234;19.224;2023-05-03T05:19:36;29.50;25.00;16.50
76049;PMS7003;64967;50.234;19.224;2023-05-03T05:22:03;22.50;20.75;13.50
76049;PMS7003;64967;50.234;19.224;2023-05-03T05:24:30;31.25;28.25;19.75
76049;PMS7003;64967;50.234;19.224;2023-05-03T05:26:57;28.50;26.50;20.50
76049;PMS7003;64967;50.234;19.224;2023-05-03T05:29:24;31.00;27.75;18.25
76049;PMS7003;64967;50.234;19.224;2023-05-03T05:31:51;31.75;30.25;22.00
76049;PMS7003;64967;50.234;19.224;2023-05-03T05:34:18;27.50;23.50;13.25
76049;PMS7003;64967;50.234;19.224;2023-05-03T05:36:45;23.25;20.50;14.25
76049;PMS7003;64967;50.234;19.224;2023-05-03T05:39:12;25.25;22.25;15.75
76049;PMS7003;64967;50.234;19.224;2023-05-03T05:41:39;27.00;26.50;19.00
76049;PMS7003;64967;50.234;19.224;2023-05-03T05:44:06;24.50;20.75;16.75
76049;PMS7003;64967;50.234;19.224;2023-05-03T05:46:33;26.75;22.25;17.25
76049;PMS7003;64967;50.234;19.224;2023-05-03T05:49:00;32.50;29.50;20.00
76049;PMS7003;64967;50.234;19.224;2023-05-03T05:51:27;42.25;33.50;23.75
76049;PMS7003;64967;50.234;19.224;2023-05-03T05:53:56;37.75;30.00;20.00
76049;PMS7003;64967;50.234;19.224;2023-05-03T05:56:23;35.25;30.75;20.00
76049;PMS7003;64967;50.234;19.224;2023-05-03T05:58:50;36.00;34.00;20.75
76049;PMS7003;64967;50.234;19.224;2023-05-03T06:01:17;34.50;31.00;21.00
76049;PMS7003;64967;50.234;19.224;2023-05-03T06:03:44;25.50;24.75;18.75
76049;PMS7003;64967;50.234;19.224;2023-05-03T06:06:11;34.75;33.25;21.50
76049;PMS7003;64967;50.234;19.224;2023-05-03T06:08:38;33.75;31.00;22.00
76049;PMS7003;64967;50.234;19.224;2023-05-03T06:11:05;31.75;26.75;19.75
76049;PMS7003;64967;50.234;19.224;2023-05-03T06:13:32;28.00;24.50;18.00
76049;PMS7003;64967;50.234;19.224;2023-05-03T06:16:04;31.00;26.00;19.25
76049;PMS7003;64967;50.234;19.224;2023-05-03T06:18:31;33.00;26.75;18.75
76049;PMS7003;64967;50.234;19.224;2023-05-03T06:20:58;25.00;24.25;20.00
76049;PMS7003;64967;50.234;19.224;2023-05-03T06:23:25;32.50;27.75;18.25
76049;PMS7003;64967;50.234;19.224;2023-05-03T06:25:53;27.00;22.25;17.25
76049;PMS7003;64967;50.234;19.224;2023-05-03T06:28:20;26.25;21.00;15.00
76049;PMS7003;64967;50.234;19.224;2023-05-03T06:30:48;22.50;18.75;14.75
76049;PMS7003;64967;50.234;19.224;2023-05-03T06:33:16;17.50;14.75;12.00
76049;PMS7003;64967;50.234;19.224;2023-05-03T06:35:43;19.50;18.50;13.00
76049;PMS7003;64967;50.234;19.224;2023-05-03T06:38:12;27.25;22.00;14.75
76049;PMS7003;64967;50.234;19.224;2023-05-03T06:40:39;19.75;17.75;13.00
76049;PMS7003;64967;50.234;19.224;2023-05-03T06:43:09;22.25;20.25;14.25
76049;PMS7003;64967;50.234;19.224;2023-05-03T06:45:36;20.75;18.50;13.75
76049;PMS7003;64967;50.234;19.224;2023-05-03T06:48:04;15.75;14.50;9.75
76049;PMS7003;64967;50.234;19.224;2023-05-03T06:50:32;22.00;20.25;15.25
76049;PMS7003;64967;50.234;19.224;2023-05-03T06:52:59;16.00;15.25;12.75
76049;PMS7003;64967;50.234;19.224;2023-05-03T06:55:26;27.00;21.75;14.00
76049;PMS7003;64967;50.234;19.224;2023-05-03T06:57:53;20.50;18.50;13.00
76049;PMS7003;64967;50.234;19.224;2023-05-03T07:00:20;26.00;22.00;16.00
76049;PMS7003;64967;50.234;19.224;2023-05-03T07:02:48;21.50;19.75;14.00
76049;PMS7003;64967;50.234;19.224;2023-05-03T07:05:15;19.75;19.75;14.00
76049;PMS7003;64967;50.234;19.224;2023-05-03T07:07:42;18.75;16.50;12.00
76049;PMS7003;64967;50.234;19.224;2023-05-03T07:10:10;19.25;14.75;12.00
76049;PMS7003;64967;50.234;19.224;2023-05-03T07:12:37;26.00;20.75;14.00
76049;PMS7003;64967;50.234;19.224;2023-05-03T07:15:03;17.00;15.00;12.25
76049;PMS7003;64967;50.234;19.224;2023-05-03T07:17:31;15.00;13.75;10.00
76049;PMS7003;64967;50.234;19.224;2023-05-03T07:19:58;17.50;17.50;12.00
76049;PMS7003;64967;50.234;19.224;2023-05-03T07:22:25;20.00;18.50;13.00
76049;PMS7003;64967;50.234;19.224;2023-05-03T07:24:52;18.00;16.00;13.00
76049;PMS7003;64967;50.234;19.224;2023-05-03T07:27:25;15.25;13.25;9.50
76049;PMS7003;64967;50.234;19.224;2023-05-03T07:29:52;11.50;11.25;9.50
76049;PMS7003;64967;50.234;19.224;2023-05-03T07:32:20;16.00;12.50;10.00
76049;PMS7003;64967;50.234;19.224;2023-05-03T07:34:47;10.00;8.75;7.00
76049;PMS7003;64967;50.234;19.224;2023-05-03T07:37:14;14.50;12.00;9.75
76049;PMS7003;64967;50.234;19.224;2023-05-03T07:39:42;13.50;11.00;9.25
76049;PMS7003;64967;50.234;19.224;2023-05-03T07:42:09;8.00;7.75;7.00
76049;PMS7003;64967;50.234;19.224;2023-05-03T07:44:35;11.25;9.00;7.00
76049;PMS7003;64967;50.234;19.224;2023-05-03T07:47:03;8.75;7.25;6.00
76049;PMS7003;64967;50.234;19.224;2023-05-03T07:49:29;9.50;8.50;6.00
76049;PMS7003;64967;50.234;19.224;2023-05-03T07:52:01;6.75;6.25;5.00
76049;PMS7003;64967;50.234;19.224;2023-05-03T07:54:28;10.75;8.25;7.00
76049;PMS7003;64967;50.234;19.224;2023-05-03T07:56:55;9.25;9.25;7.00
76049;PMS7003;64967;50.234;19.224;2023-05-03T07:59:22;7.50;7.00;5.50
76049;PMS7003;64967;50.234;19.224;2023-05-03T08:01:49;6.50;6.00;5.00
76049;PMS7003;64967;50.234;19.224;2023-05-03T08:04:16;10.25;8.00;6.00
76049;PMS7003;64967;50.234;19.224;2023-05-03T08:06:43;10.25;9.00;6.25
76049;PMS7003;64967;50.234;19.224;2023-05-03T08:09:11;9.00;8.25;6.00
76049;PMS7003;64967;50.234;19.224;2023-05-03T08:11:38;9.00;7.75;7.00
76049;PMS7003;64967;50.234;19.224;2023-05-03T08:14:08;10.75;7.00;5.00
76049;PMS7003;64967;50.234;19.224;2023-05-03T08:16:35;10.00;9.75;7.00
76049;PMS7003;64967;50.234;19.224;2023-05-03T08:19:02;10.25;9.00;5.75
76049;PMS7003;64967;50.234;19.224;2023-05-03T08:21:30;10.50;10.25;6.75
76049;PMS7003;64967;50.234;19.224;2023-05-03T08:23:58;6.00;5.25;4.75
76049;PMS7003;64967;50.234;19.224;2023-05-03T08:26:26;11.00;7.50;6.25
76049;PMS7003;64967;50.234;19.224;2023-05-03T08:28:55;10.50;8.00;6.75
76049;PMS7003;64967;50.234;19.224;2023-05-03T08:31:22;7.50;7.50;6.00
76049;PMS7003;64967;50.234;19.224;2023-05-03T08:33:49;8.50;6.00;5.25
76049;PMS7003;64967;50.234;19.224;2023-05-03T08:36:16;6.00;5.25;4.00
76049;PMS7003;64967;50.234;19.224;2023-05-03T08:38:43;5.00;3.75;3.25
76049;PMS7003;64967;50.234;19.224;2023-05-03T08:41:43;5.00;5.00;4.00
76049;PMS7003;64967;50.234;19.224;2023-05-03T08:44:05;7.00;7.00;5.75
76049;PMS7003;64967;50.234;19.224;2023-05-03T08:46:33;11.75;6.75;4.50
76049;PMS7003;64967;50.234;19.224;2023-05-03T08:49:03;6.75;6.75;5.50
76049;PMS7003;64967;50.234;19.224;2023-05-03T08:51:32;9.00;8.25;7.00
76049;PMS7003;64967;50.234;19.224;2023-05-03T08:54:00;7.50;6.75;5.25
76049;PMS7003;64967;50.234;19.224;2023-05-03T08:56:28;8.75;8.00;7.00
76049;PMS7003;64967;50.234;19.224;2023-05-03T08:58:58;5.75;5.75;5.00
76049;PMS7003;64967;50.234;19.224;2023-05-03T09:01:34;8.50;7.50;6.00
76049;PMS7003;64967;50.234;19.224;2023-05-03T09:04:02;8.00;7.25;5.50
76049;PMS7003;64967;50.234;19.224;2023-05-03T09:06:30;10.25;9.00;7.00
76049;PMS7003;64967;50.234;19.224;2023-05-03T09:09:01;9.25;8.25;7.00
76049;PMS7003;64967;50.234;19.224;2023-05-03T09:11:33;12.75;12.25;8.50
76049;PMS7003;64967;50.234;19.224;2023-05-03T09:14:08;12.00;10.25;7.50
76049;PMS7003;64967;50.234;19.224;2023-05-03T09:16:38;11.50;10.75;8.00
76049;PMS7003;64967;50.234;19.224;2023-05-03T09:19:06;16.25;13.00;8.00
76049;PMS7003;64967;50.234;19.224;2023-05-03T09:21:41;11.00;10.25;8.25
76049;PMS7003;64967;50.234;19.224;2023-05-03T09:26:43;17.25;14.75;10.50
76049;PMS7003;64967;50.234;19.224;2023-05-03T09:29:31;11.25;11.25;8.25
76049;PMS7003;64967;50.234;19.224;2023-05-03T09:32:03;11.25;11.25;10.50
76049;PMS7003;64967;50.234;19.224;2023-05-03T09:34:31;11.25;10.25;8.25
76049;PMS7003;64967;50.234;19.224;2023-05-03T09:36:59;14.00;13.25;11.00
76049;PMS7003;64967;50.234;19.224;2023-05-03T09:39:26;12.50;10.75;8.00
76049;PMS7003;64967;50.234;19.224;2023-05-03T09:41:55;12.75;11.75;8.50
76049;PMS7003;64967;50.234;19.224;2023-05-03T09:47:08;14.25;13.00;10.00
76049;PMS7003;64967;50.234;19.224;2023-05-03T09:49:35;12.50;12.25;9.25
76049;PMS7003;64967;50.234;19.224;2023-05-03T09:52:03;14.00;13.00;10.50
76049;PMS7003;64967;50.234;19.224;2023-05-03T09:54:32;14.75;13.75;10.50
76049;PMS7003;64967;50.234;19.224;2023-05-03T09:57:03;14.25;12.50;10.75
76049;PMS7003;64967;50.234;19.224;2023-05-03T09:59:31;11.75;11.75;9.50
76049;PMS7003;64967;50.234;19.224;2023-05-03T10:02:01;14.25;13.50;10.00
76049;PMS7003;64967;50.234;19.224;2023-05-03T10:04:35;18.00;13.75;11.00
76049;PMS7003;64967;50.234;19.224;2023-05-03T10:07:13;19.25;17.00;14.00
76049;PMS7003;64967;50.234;19.224;2023-05-03T10:09:44;14.50;14.00;11.50
76049;PMS7003;64967;50.234;19.224;2023-05-03T10:12:12;14.00;12.25;10.75
76049;PMS7003;64967;50.234;19.224;2023-05-03T10:14:46;19.75;16.25;12.75
76049;PMS7003;64967;50.234;19.224;2023-05-03T10:17:25;17.00;16.50;12.25
76049;PMS7003;64967;50.234;19.224;2023-05-03T10:20:12;16.75;14.25;11.50
76049;PMS7003;64967;50.234;19.224;2023-05-03T10:25:31;21.00;19.25;14.75
76049;PMS7003;64967;50.234;19.224;2023-05-03T10:28:02;16.50;16.25;12.25
76049;PMS7003;64967;50.234;19.224;2023-05-03T10:30:33;18.25;16.25;11.75
76049;PMS7003;64967;50.234;19.224;2023-05-03T10:35:40;14.25;13.25;10.00
76049;PMS7003;64967;50.234;19.224;2023-05-03T10:38:15;15.25;14.00;11.00
76049;PMS7003;64967;50.234;19.224;2023-05-03T10:40:45;19.25;15.75;12.50
76049;PMS7003;64967;50.234;19.224;2023-05-03T10:46:29;16.50;16.00;12.75
76049;PMS7003;64967;50.234;19.224;2023-05-03T10:49:14;16.00;16.00;13.25
76049;PMS7003;64967;50.234;19.224;2023-05-03T10:51:43;17.00;15.75;12.50
76049;PMS7003;64967;50.234;19.224;2023-05-03T10:54:10;17.75;16.50;13.50
76049;PMS7003;64967;50.234;19.224;2023-05-03T10:56:47;14.25;14.25;11.00
76049;PMS7003;64967;50.234;19.224;2023-05-03T10:59:15;17.75;16.00;11.00
76049;PMS7003;64967;50.234;19.224;2023-05-03T11:01:45;24.00;21.25;14.75
76049;PMS7003;64967;50.234;19.224;2023-05-03T11:04:31;20.00;18.50;13.25
76049;PMS7003;64967;50.234;19.224;2023-05-03T11:07:02;17.25;16.25;13.25
76049;PMS7003;64967;50.234;19.224;2023-05-03T11:09:30;21.25;14.50;12.00
76049;PMS7003;64967;50.234;19.224;2023-05-03T11:12:02;19.75;18.50;15.00
76049;PMS7003;64967;50.234;19.224;2023-05-03T11:14:29;17.25;15.50;12.50
76049;PMS7003;64967;50.234;19.224;2023-05-03T11:16:57;18.00;15.50;13.00
76049;PMS7003;64967;50.234;19.224;2023-05-03T11:19:24;19.50;16.00;10.00
76049;PMS7003;64967;50.234;19.224;2023-05-03T11:21:52;16.75;15.25;13.25
76049;PMS7003;64967;50.234;19.224;2023-05-03T11:24:19;16.75;15.00;12.00
76049;PMS7003;64967;50.234;19.224;2023-05-03T11:26:46;16.00;15.00;12.00
76049;PMS7003;64967;50.234;19.224;2023-05-03T11:29:14;19.50;17.75;14.75
76049;PMS7003;64967;50.234;19.224;2023-05-03T11:31:42;20.75;19.00;15.00
76049;PMS7003;64967;50.234;19.224;2023-05-03T11:34:10;16.25;15.00;12.00
76049;PMS7003;64967;50.234;19.224;2023-05-03T11:36:39;17.00;15.00;12.00
76049;PMS7003;64967;50.234;19.224;2023-05-03T11:39:07;16.00;14.25;12.75
76049;PMS7003;64967;50.234;19.224;2023-05-03T11:41:34;21.00;18.00;14.50
76049;PMS7003;64967;50.234;19.224;2023-05-03T11:44:01;20.50;19.00;14.00
76049;PMS7003;64967;50.234;19.224;2023-05-03T11:46:42;18.00;17.00;13.00
76049;PMS7003;64967;50.234;19.224;2023-05-03T11:49:09;18.75;18.25;14.00
76049;PMS7003;64967;50.234;19.224;2023-05-03T11:51:36;15.75;14.00;11.00
76049;PMS7003;64967;50.234;19.224;2023-05-03T11:54:03;20.75;17.00;14.00
76049;PMS7003;64967;50.234;19.224;2023-05-03T11:56:50;21.75;20.75;15.00
76049;PMS7003;64967;50.234;19.224;2023-05-03T11:59:31;15.00;15.00;11.75
76049;PMS7003;64967;50.234;19.224;2023-05-03T12:02:00;17.75;17.50;14.50
76049;PMS7003;64967;50.234;19.224;2023-05-03T12:04:30;17.00;16.75;13.00
76049;PMS7003;64967;50.234;19.224;2023-05-03T12:06:57;16.00;15.25;13.00
76049;PMS7003;64967;50.234;19.224;2023-05-03T12:09:26;16.75;15.50;12.75
76049;PMS7003;64967;50.234;19.224;2023-05-03T12:11:54;18.50;15.00;11.25
76049;PMS7003;64967;50.234;19.224;2023-05-03T12:14:24;20.00;16.50;13.25
76049;PMS7003;64967;50.234;19.224;2023-05-03T12:16:51;20.25;18.00;14.00
76049;PMS7003;64967;50.234;19.224;2023-05-03T12:19:24;20.25;17.75;13.50
76049;PMS7003;64967;50.234;19.224;2023-05-03T12:21:56;23.50;22.75;16.00
76049;PMS7003;64967;50.234;19.224;2023-05-03T12:24:43;22.50;19.25;14.00
76049;PMS7003;64967;50.234;19.224;2023-05-03T12:27:10;24.50;24.25;17.25
76049;PMS7003;64967;50.234;19.224;2023-05-03T12:29:39;22.50;22.50;18.50
76049;PMS7003;64967;50.234;19.224;2023-05-03T12:32:07;24.25;23.00;16.00
76049;PMS7003;64967;50.234;19.224;2023-05-03T12:34:34;20.25;20.00;16.00
76049;PMS7003;64967;50.234;19.224;2023-05-03T12:37:06;22.00;20.50;15.75
76049;PMS7003;64967;50.234;19.224;2023-05-03T12:39:36;20.00;18.00;14.00
76049;PMS7003;64967;50.234;19.224;2023-05-03T12:42:05;17.75;16.50;13.00
76049;PMS7003;64967;50.234;19.224;2023-05-03T12:44:38;20.25;18.00;13.75
76049;PMS7003;64967;50.234;19.224;2023-05-03T12:47:08;23.50;20.75;17.00
76049;PMS7003;64967;50.234;19.224;2023-05-03T12:49:35;27.50;23.25;18.25
76049;PMS7003;64967;50.234;19.224;2023-05-03T12:52:05;23.00;20.00;16.00
76049;PMS7003;64967;50.234;19.224;2023-05-03T12:54:51;21.75;18.75;15.00
76049;PMS7003;64967;50.234;19.224;2023-05-03T12:57:21;22.75;21.25;17.00
76049;PMS7003;64967;50.234;19.224;2023-05-03T12:59:50;21.75;19.75;16.00
76049;PMS7003;64967;50.234;19.224;2023-05-03T13:02:27;16.00;14.75;12.00
76049;PMS7003;64967;50.234;19.224;2023-05-03T13:04:57;19.25;17.25;14.50
76049;PMS7003;64967;50.234;19.224;2023-05-03T13:07:37;20.50;18.25;14.25
76049;PMS7003;64967;50.234;19.224;2023-05-03T13:10:08;21.25;18.50;14.00
76049;PMS7003;64967;50.234;19.224;2023-05-03T13:12:39;15.75;15.50;13.00
76049;PMS7003;64967;50.234;19.224;2023-05-03T13:15:06;23.25;22.00;18.00
76049;PMS7003;64967;50.234;19.224;2023-05-03T13:17:34;26.00;24.75;19.00
76049;PMS7003;64967;50.234;19.224;2023-05-03T13:20:01;23.00;22.00;16.75
76049;PMS7003;64967;50.234;19.224;2023-05-03T13:22:32;24.25;23.25;17.50
76049;PMS7003;64967;50.234;19.224;2023-05-03T13:24:59;15.75;14.75;11.75
76049;PMS7003;64967;50.234;19.224;2023-05-03T13:27:26;19.00;18.25;15.00
76049;PMS7003;64967;50.234;19.224;2023-05-03T13:29:53;20.50;19.00;16.25
76049;PMS7003;64967;50.234;19.224;2023-05-03T13:32:20;25.50;23.75;17.50
76049;PMS7003;64967;50.234;19.224;2023-05-03T13:34:47;21.00;21.00;17.00
76049;PMS7003;64967;50.234;19.224;2023-05-03T13:37:14;27.75;23.50;18.75
76049;PMS7003;64967;50.234;19.224;2023-05-03T13:39:44;30.75;26.75;18.50
76049;PMS7003;64967;50.234;19.224;2023-05-03T13:42:12;25.75;24.50;19.25
76049;PMS7003;64967;50.234;19.224;2023-05-03T13:44:38;21.00;19.00;14.50
76049;PMS7003;64967;50.234;19.224;2023-05-03T13:47:06;35.00;31.25;21.50
76049;PMS7003;64967;50.234;19.224;2023-05-03T13:49:33;25.75;23.50;16.00
76049;PMS7003;64967;50.234;19.224;2023-05-03T13:52:00;28.50;23.25;17.75
76049;PMS7003;64967;50.234;19.224;2023-05-03T13:54:27;22.75;20.25;15.00
76049;PMS7003;64967;50.234;19.224;2023-05-03T13:56:57;24.50;23.00;16.00
76049;PMS7003;64967;50.234;19.224;2023-05-03T13:59:24;23.75;21.75;17.00
76049;PMS7003;64967;50.234;19.224;2023-05-03T14:01:51;20.50;20.50;15.25
76049;PMS7003;64967;50.234;19.224;2023-05-03T14:04:18;17.00;16.00;13.00
76049;PMS7003;64967;50.234;19.224;2023-05-03T14:06:45;21.25;21.00;15.50
76049;PMS7003;64967;50.234;19.224;2023-05-03T14:09:15;18.75;16.50;13.00
76049;PMS7003;64967;50.234;19.224;2023-05-03T14:11:47;20.50;18.50;14.75
76049;PMS7003;64967;50.234;19.224;2023-05-03T14:14:14;23.75;21.75;15.75
76049;PMS7003;64967;50.234;19.224;2023-05-03T14:16:42;18.75;15.75;13.75
76049;PMS7003;64967;50.234;19.224;2023-05-03T14:19:09;19.00;18.25;15.25